»·PEaware :: SWA3534 KOAK-KSEA

SWA3534 :: KOAK-KSEA

FLIGHT INFORMATION

Flight Status: Arrived
Operator:
Southwest Airlines
More flights by this operator :: More flights under this callsign
Pilot: Tyler J. (19619)
Aircraft: BOEING 737-800
(B738)
More flights by this aircraft type
Origin: KOAK Metro Oakland Intl
United States
Destination: KSEA Seattle-Tacoma Intl
United States
More flights between these airports :: More routes between these airports
Route: +HUSSH2 DEDHD RBL J65 LMT BTG HAWKZ7
File this flight plan on PilotEdge
Remarks:
Altitude:
(Current/Filed)
36,000ft
Speed:
(Current/Filed)
500kts
Departed: 24-Nov-18 08:22 PM
Arrived: 24-Nov-18 10:02 PM
Distance/Time
Traveled:
583nm/1:40
Distance/Time
To Go:
Arrived

Flight Plot

Page will automatically refresh every two minutes.

Flight plan parsing failed; only flown route is shown


Map Options




Map Legend


Flown Route
Filed Route
Departure Airport
Arrival Airport
Navaid (VOR, NDB)
Fix

Horizontal Profiles

Position Reports

Time Latitude Longitude Heading Altitude Ground
Speed
24-Nov-18 19:58 37.712548 -122.213641 36 13ft 0kts
24-Nov-18 19:59 37.712548 -122.213641 36 13ft 0kts
24-Nov-18 20:00 37.712548 -122.213641 36 13ft 0kts
24-Nov-18 20:01 37.712548 -122.213641 36 13ft 0kts
24-Nov-18 20:02 37.712548 -122.213641 36 13ft 0kts
24-Nov-18 20:03 37.712548 -122.213641 36 13ft 0kts
24-Nov-18 20:04 37.712548 -122.213641 36 13ft 0kts
24-Nov-18 20:05 37.712548 -122.213641 36 13ft 0kts
24-Nov-18 20:06 37.712548 -122.213641 36 13ft 0kts
24-Nov-18 20:07 37.712548 -122.213641 36 13ft 0kts
24-Nov-18 20:08 37.712548 -122.213641 36 13ft 0kts
24-Nov-18 20:09 37.712548 -122.213641 36 13ft 0kts
24-Nov-18 20:10 37.712548 -122.213641 36 13ft 0kts
24-Nov-18 20:11 37.712548 -122.213641 36 13ft 0kts
24-Nov-18 20:12 37.712548 -122.213641 36 13ft 0kts
24-Nov-18 20:13 37.712548 -122.213641 36 13ft 0kts
24-Nov-18 20:14 37.712548 -122.213641 36 13ft 0kts
24-Nov-18 20:15 37.712548 -122.213641 36 13ft 0kts
24-Nov-18 20:16 37.712548 -122.213641 36 13ft 0kts
24-Nov-18 20:17 37.712313 -122.213847 31 13ft 2kts
24-Nov-18 20:18 37.711944 -122.214127 33 13ft 0kts
24-Nov-18 20:19 37.711946 -122.214126 33 13ft 0kts
24-Nov-18 20:20 37.711271 -122.213720 223 13ft 7kts
24-Nov-18 20:21 37.708962 -122.215891 214 13ft 13kts
24-Nov-18 20:22 37.705975 -122.217205 129 13ft 20kts
24-Nov-18 20:23 37.703619 -122.213995 162 13ft 18kts
24-Nov-18 20:24 37.701879 -122.214219 217 13ft 7kts
24-Nov-18 20:25 37.707604 -122.223471 309 14ft 134kts
24-Nov-18 20:26 37.735401 -122.281271 293 1322ft 201kts
24-Nov-18 20:27 37.765239 -122.344219 329 3597ft 247kts
24-Nov-18 20:28 37.832328 -122.380110 340 6882ft 272kts
24-Nov-18 20:29 37.910529 -122.384908 357 10130ft 293kts
24-Nov-18 20:30 37.995887 -122.402754 351 11961ft 347kts
24-Nov-18 20:31 38.085532 -122.352862 43 13653ft 379kts
24-Nov-18 20:32 38.165821 -122.269856 32 16502ft 384kts
24-Nov-18 20:33 38.251737 -122.190566 32 18637ft 401kts
24-Nov-18 20:34 38.349474 -122.121622 4 20607ft 407kts
24-Nov-18 20:35 38.463971 -122.122494 354 22503ft 416kts
24-Nov-18 20:36 38.581217 -122.129966 353 24218ft 427kts
24-Nov-18 20:37 38.701492 -122.138059 353 25821ft 437kts
24-Nov-18 20:38 38.823742 -122.146424 353 27252ft 444kts
24-Nov-18 20:39 38.948348 -122.155043 353 28540ft 451kts
24-Nov-18 20:40 39.072954 -122.163711 353 30128ft 447kts
24-Nov-18 20:41 39.196673 -122.172354 352 31633ft 443kts
24-Nov-18 20:42 39.319648 -122.180977 352 32992ft 440kts
24-Nov-18 20:43 39.441807 -122.189572 352 34269ft 437kts
24-Nov-18 20:44 39.562471 -122.198095 351 35507ft 433kts
24-Nov-18 20:45 39.682891 -122.206630 351 36108ft 434kts
24-Nov-18 20:46 39.802813 -122.215147 351 36110ft 430kts
24-Nov-18 20:47 39.919748 -122.223487 351 36112ft 432kts
24-Nov-18 20:48 40.039793 -122.232099 351 36112ft 431kts
24-Nov-18 20:49 40.161335 -122.221664 5 36123ft 448kts
24-Nov-18 20:50 40.284706 -122.191703 5 36134ft 452kts
24-Nov-18 20:51 40.408942 -122.161518 5 36139ft 455kts
24-Nov-18 20:52 40.534493 -122.131106 5 36146ft 458kts
24-Nov-18 20:53 40.659880 -122.100596 5 36152ft 459kts
24-Nov-18 20:54 40.785557 -122.069870 5 36152ft 459kts
24-Nov-18 20:55 40.911498 -122.038955 5 36159ft 460kts
24-Nov-18 20:56 41.037352 -122.007939 5 36170ft 461kts
24-Nov-18 20:57 41.163481 -121.976733 5 36181ft 463kts
24-Nov-18 20:58 41.290434 -121.945199 6 36187ft 463kts
24-Nov-18 20:59 41.416668 -121.913586 6 36189ft 463kts
24-Nov-18 21:00 41.543484 -121.881398 7 36189ft 463kts
24-Nov-18 21:01 41.665234 -121.850988 5 36190ft 462kts
24-Nov-18 21:02 41.791823 -121.819356 6 36191ft 462kts
24-Nov-18 21:03 41.918027 -121.787519 6 36192ft 461kts
24-Nov-18 21:04 42.044167 -121.755396 6 36193ft 461kts
24-Nov-18 21:05 42.170271 -121.735024 350 36196ft 451kts
24-Nov-18 21:06 42.293918 -121.759843 346 36195ft 448kts
24-Nov-18 21:07 42.416850 -121.787650 345 36195ft 447kts
24-Nov-18 21:08 42.539564 -121.815603 346 36196ft 447kts
24-Nov-18 21:09 42.662267 -121.843660 345 36197ft 447kts
24-Nov-18 21:10 42.784661 -121.871825 345 36197ft 446kts
24-Nov-18 21:11 42.907035 -121.900124 346 36198ft 445kts
24-Nov-18 21:12 43.028942 -121.928433 346 36200ft 444kts
24-Nov-18 21:13 43.150313 -121.956736 346 36202ft 442kts
24-Nov-18 21:14 43.266789 -121.984012 346 36209ft 440kts
24-Nov-18 21:15 43.387086 -122.012282 346 36208ft 440kts
24-Nov-18 21:16 43.507311 -122.040657 346 36216ft 435kts
24-Nov-18 21:17 43.626957 -122.069006 346 36219ft 435kts
24-Nov-18 21:18 43.746472 -122.097438 346 36219ft 435kts
24-Nov-18 21:19 43.865405 -122.125849 346 36226ft 434kts
24-Nov-18 21:20 43.984700 -122.154461 346 36230ft 433kts
24-Nov-18 21:21 44.103546 -122.183081 346 36231ft 434kts
24-Nov-18 21:22 44.222437 -122.211830 346 36236ft 433kts
24-Nov-18 21:23 44.341051 -122.240630 346 36238ft 433kts
24-Nov-18 21:24 44.459800 -122.269581 346 36238ft 433kts
24-Nov-18 21:25 44.578541 -122.298650 346 36241ft 433kts
24-Nov-18 21:26 44.697269 -122.327839 346 36247ft 431kts
24-Nov-18 21:27 44.815452 -122.357013 346 36253ft 431kts
24-Nov-18 21:28 44.933215 -122.386204 346 36263ft 429kts
24-Nov-18 21:29 45.050791 -122.415472 346 36268ft 428kts
24-Nov-18 21:30 45.164854 -122.443980 346 36270ft 429kts
24-Nov-18 21:31 45.282362 -122.473472 346 36269ft 429kts
24-Nov-18 21:32 45.380066 -122.498089 346 36269ft 428kts
24-Nov-18 21:33 45.516937 -122.532629 346 36271ft 428kts
24-Nov-18 21:34 45.634166 -122.562473 346 36271ft 428kts
24-Nov-18 21:35 45.731813 -122.587429 346 36117ft 420kts
24-Nov-18 21:36 45.866068 -122.620643 346 32671ft 431kts
24-Nov-18 21:37 45.984840 -122.650152 347 29964ft 426kts
24-Nov-18 21:38 46.080384 -122.673979 347 28262ft 412kts
24-Nov-18 21:39 46.210178 -122.700418 349 25960ft 394kts
24-Nov-18 21:40 46.299394 -122.718059 349 24361ft 384kts
24-Nov-18 21:41 46.405010 -122.726372 356 22478ft 375kts
24-Nov-18 21:42 46.508135 -122.729174 356 20629ft 365kts
24-Nov-18 21:43 46.608413 -122.732597 356 18824ft 355kts
24-Nov-18 21:44 46.707564 -122.736163 356 16799ft 352kts
24-Nov-18 21:45 46.799196 -122.719727 23 15909ft 332kts
24-Nov-18 21:46 46.871975 -122.636381 34 14488ft 329kts
24-Nov-18 21:47 46.942298 -122.562520 21 13684ft 304kts
24-Nov-18 21:48 47.022829 -122.524794 13 12291ft 303kts
24-Nov-18 21:49 47.102801 -122.495393 4 11285ft 291kts
24-Nov-18 21:50 47.182690 -122.481579 5 10142ft 287kts
24-Nov-18 21:51 47.261230 -122.469007 5 9051ft 281kts
24-Nov-18 21:52 47.337999 -122.457992 5 8119ft 268kts
24-Nov-18 21:53 47.410787 -122.455120 0 7260ft 257kts
24-Nov-18 21:54 47.481306 -122.455633 0 6131ft 248kts
24-Nov-18 21:55 47.550157 -122.454595 1 4534ft 244kts
24-Nov-18 21:56 47.616996 -122.453344 1 3137ft 231kts
24-Nov-18 21:57 47.676512 -122.452472 1 3027ft 204kts
24-Nov-18 21:58 47.733018 -122.445136 37 3093ft 205kts
24-Nov-18 21:59 47.729196 -122.374068 142 3045ft 202kts
24-Nov-18 22:00 47.676869 -122.346311 168 3038ft 203kts
24-Nov-18 22:01 47.621176 -122.331183 169 3046ft 203kts
24-Nov-18 22:02 47.566486 -122.314537 166 2596ft 192kts
24-Nov-18 22:03 47.519884 -122.310881 178 1624ft 148kts
24-Nov-18 22:04 47.477743 -122.310967 179 778ft 152kts
24-Nov-18 22:05 47.446442 -122.311074 158 441ft 17kts
24-Nov-18 22:06 47.445108 -122.309999 151 441ft 0kts
24-Nov-18 22:07 47.443709 -122.308111 107 441ft 24kts
24-Nov-18 22:08 47.441137 -122.305694 180 441ft 12kts
24-Nov-18 22:09 47.439729 -122.303559 80 441ft 13kts
24-Nov-18 22:10 47.441453 -122.302414 311 441ft 5kts
24-Nov-18 22:11 47.441556 -122.303067 278 441ft 0kts
24-Nov-18 22:12 47.441556 -122.303067 278 441ft 0kts
24-Nov-18 22:13 47.441556 -122.303067 278 441ft 0kts
24-Nov-18 22:14 47.441556 -122.303067 278 441ft 0kts
24-Nov-18 22:15 47.441556 -122.303067 278 441ft 0kts
24-Nov-18 22:16 47.441556 -122.303067 278 441ft 0kts
24-Nov-18 22:17 47.441556 -122.303067 278 441ft 0kts
24-Nov-18 22:18 47.441556 -122.303067 278 441ft 0kts
24-Nov-18 22:19 47.441556 -122.303067 278 441ft 0kts

Navigation Log

Ident Type
Flight plan parsing failed, navigation log unavailable